Time;durP1;ratioP1;P1;durP2;ratioP2;P2;SDS_P1;SDS_P2;PMS_P1;PMS_P2;Temp;Humidity;BMP_temperature;BMP_pressure;BME280_temperature;BME280_humidity;BME280_pressure;Samples;Min_cycle;Max_cycle;Signal;HPM_P1;HPM_P2
2022/03/09 00:01:15;;;;;;;15.43;8.33;;;5.30;75.30;;;;;;4942251;28;20674;-78
2022/03/09 00:03:41;;;;;;;16.70;8.63;;;5.30;75.40;;;;;;4944246;28;20534;-80
2022/03/09 00:06:06;;;;;;;16.87;7.97;;;5.30;75.40;;;;;;4926765;28;20213;-79
2022/03/09 00:08:32;;;;;;;15.17;8.23;;;5.30;75.50;;;;;;4958177;28;20188;-79
2022/03/09 00:10:58;;;;;;;14.90;8.20;;;5.30;75.50;;;;;;4943494;28;20620;-79
2022/03/09 00:13:23;;;;;;;14.03;8.07;;;5.20;75.50;;;;;;4945157;28;20267;-77
2022/03/09 00:15:49;;;;;;;14.70;8.27;;;5.20;75.50;;;;;;4943766;28;20204;-80
2022/03/09 00:18:14;;;;;;;19.87;8.13;;;5.20;75.50;;;;;;4943700;28;20198;-78
2022/03/09 00:20:40;;;;;;;14.33;8.03;;;5.10;75.60;;;;;;4958333;28;20216;-79
2022/03/09 00:23:06;;;;;;;18.60;8.50;;;5.20;76.40;;;;;;4956834;28;20196;-79
2022/03/09 00:25:33;;;;;;;17.37;8.67;;;5.20;75.80;;;;;;4959425;28;20650;-79
2022/03/09 00:27:58;;;;;;;17.83;8.50;;;5.10;75.70;;;;;;4942424;28;20215;-79
2022/03/09 00:30:24;;;;;;;17.27;8.67;;;5.10;75.80;;;;;;4942797;28;20200;-79
2022/03/09 00:32:50;;;;;;;15.30;7.90;;;5.10;75.90;;;;;;4977408;28;20189;-78
2022/03/09 00:35:16;;;;;;;17.70;8.13;;;5.10;76.00;;;;;;4924781;28;20192;-80
2022/03/09 00:37:41;;;;;;;15.77;8.07;;;5.10;76.10;;;;;;4940820;28;20196;-78
2022/03/09 00:40:08;;;;;;;14.53;8.47;;;5.10;76.20;;;;;;4974647;28;20443;-79
2022/03/09 00:42:38;;;;;;;22.10;9.80;;;5.00;76.10;;;;;;4943431;28;20276;-79
2022/03/09 00:45:05;;;;;;;15.17;8.90;;;5.10;76.30;;;;;;4943387;28;20554;-79
2022/03/09 00:47:31;;;;;;;17.03;8.83;;;5.00;76.30;;;;;;4971012;28;20197;-80
2022/03/09 00:49:56;;;;;;;15.87;8.57;;;5.00;76.40;;;;;;4961489;28;20199;-80
2022/03/09 00:52:22;;;;;;;15.40;8.80;;;5.00;76.50;;;;;;4958512;28;20242;-79
2022/03/09 00:54:49;;;;;;;16.60;7.73;;;5.00;76.60;;;;;;4942021;28;20189;-79
2022/03/09 00:57:15;;;;;;;17.27;8.20;;;5.00;76.70;;;;;;4941577;28;20291;-79
2022/03/09 00:59:40;;;;;;;15.23;8.37;;;4.90;76.70;;;;;;4975157;28;20663;-78
2022/03/09 01:02:06;;;;;;;17.33;8.23;;;4.90;76.70;;;;;;4941587;28;20282;-79
2022/03/09 01:04:34;;;;;;;14.27;8.17;;;4.90;77.60;;;;;;4955223;28;20192;-80
2022/03/09 01:07:00;;;;;;;23.17;9.50;;;4.90;76.90;;;;;;4973502;28;20549;-79
2022/03/09 01:09:26;;;;;;;19.50;8.73;;;4.80;77.20;;;;;;4976000;28;20184;-78
2022/03/09 01:11:51;;;;;;;16.17;8.97;;;4.80;77.00;;;;;;4949138;28;20204;-78
2022/03/09 01:14:17;;;;;;;17.47;8.30;;;4.80;77.10;;;;;;4941021;28;20215;-78
2022/03/09 01:16:43;;;;;;;17.13;8.17;;;4.80;77.20;;;;;;4956032;28;20304;-78
2022/03/09 01:19:08;;;;;;;16.23;8.37;;;4.80;77.20;;;;;;4977025;28;20677;-77
2022/03/09 01:21:34;;;;;;;15.13;8.10;;;4.70;77.20;;;;;;4939719;28;20235;-80
2022/03/09 01:24:00;;;;;;;17.30;8.60;;;4.80;77.30;;;;;;4942832;28;20192;-80
2022/03/09 01:26:26;;;;;;;14.60;8.40;;;4.70;77.30;;;;;;4947994;28;20185;-79
2022/03/09 01:28:52;;;;;;;16.80;7.90;;;4.70;77.50;;;;;;4956625;28;20630;-80
2022/03/09 01:31:18;;;;;;;17.27;8.57;;;4.70;77.50;;;;;;4955390;28;20193;-79
2022/03/09 01:33:44;;;;;;;16.37;8.47;;;4.70;77.60;;;;;;4929736;28;20192;-79
2022/03/09 01:36:09;;;;;;;15.53;8.37;;;4.70;77.60;;;;;;4938710;28;20661;-77
2022/03/09 01:38:35;;;;;;;12.90;7.90;;;4.60;77.60;;;;;;4957780;28;20216;-79
2022/03/09 01:41:01;;;;;;;20.00;8.60;;;4.60;77.70;;;;;;4924680;28;20224;-79
2022/03/09 01:43:26;;;;;;;15.87;8.63;;;4.60;77.60;;;;;;4940356;28;20219;-79
2022/03/09 01:45:52;;;;;;;16.37;8.80;;;4.60;77.70;;;;;;4940915;28;20292;-78
2022/03/09 01:48:18;;;;;;;17.10;8.00;;;4.60;77.70;;;;;;4974735;28;20256;-79
2022/03/09 01:50:44;;;;;;;15.87;8.13;;;4.60;77.70;;;;;;4930275;28;20206;-78
2022/03/09 01:53:11;;;;;;;15.07;8.20;;;4.60;77.70;;;;;;4939695;28;20212;-79
2022/03/09 01:55:37;;;;;;;15.40;8.30;;;4.60;77.70;;;;;;4958130;28;20199;-79
2022/03/09 01:58:03;;;;;;;14.53;8.20;;;4.60;77.70;;;;;;4924121;28;20686;-79
2022/03/09 02:00:32;;;;;;;14.27;8.00;;;4.50;77.70;;;;;;4958872;28;20240;-80
2022/03/09 02:02:58;;;;;;;15.93;8.03;;;4.60;77.80;;;;;;4941045;28;20193;-79
2022/03/09 02:05:23;;;;;;;16.83;9.07;;;4.50;77.80;;;;;;4956563;28;20197;-79
2022/03/09 02:10:34;;;;;;;15.93;8.00;;;4.50;78.40;;;;;;4963299;28;20213;-78
2022/03/09 02:12:59;;;;;;;15.33;8.27;;;4.50;77.80;;;;;;4928193;28;20687;-79
2022/03/09 02:15:25;;;;;;;13.87;7.73;;;4.50;77.80;;;;;;4960310;28;20188;-78
2022/03/09 02:17:51;;;;;;;18.93;8.83;;;4.50;77.80;;;;;;4941341;28;20950;-78
2022/03/09 02:20:16;;;;;;;15.27;8.37;;;4.50;78.50;;;;;;4942525;28;20197;-79
2022/03/09 02:22:43;;;;;;;15.40;8.37;;;4.50;77.80;;;;;;4960471;28;20224;-80
2022/03/09 02:25:14;;;;;;;19.40;8.40;;;4.50;77.80;;;;;;4960002;28;20192;-78
2022/03/09 02:27:41;;;;;;;17.83;9.47;;;4.50;77.90;;;;;;4976879;28;20192;-79
2022/03/09 02:30:09;;;;;;;19.40;9.10;;;4.50;77.90;;;;;;4980002;28;20288;-79
2022/03/09 02:32:44;;;;;;;18.97;9.30;;;4.50;78.00;;;;;;4961365;28;20196;-77
2022/03/09 02:35:11;;;;;;;13.57;8.03;;;4.50;78.00;;;;;;4960586;28;20196;-80
2022/03/09 02:37:38;;;;;;;17.10;8.53;;;4.50;78.30;;;;;;4961832;28;20199;-79
2022/03/09 02:40:09;;;;;;;15.83;8.43;;;4.50;78.10;;;;;;4975404;28;20223;-81
2022/03/09 02:42:34;;;;;;;17.13;8.10;;;4.50;78.20;;;;;;4931696;28;20220;-78
2022/03/09 02:45:00;;;;;;;16.50;8.33;;;4.40;78.10;;;;;;4959192;28;20193;-79
2022/03/09 02:47:26;;;;;;;17.27;8.90;;;4.40;78.20;;;;;;4956590;28;20204;-78
2022/03/09 02:49:51;;;;;;;16.50;8.70;;;4.40;78.30;;;;;;4975194;28;20220;-79
2022/03/09 02:52:17;;;;;;;15.20;7.77;;;4.40;78.40;;;;;;4945855;28;20205;-78
2022/03/09 02:54:43;;;;;;;17.57;8.93;;;4.40;79.10;;;;;;4915835;28;20192;-80
2022/03/09 02:57:08;;;;;;;17.67;8.53;;;4.40;78.40;;;;;;4961162;28;20189;-78
2022/03/09 02:59:36;;;;;;;20.00;9.10;;;4.40;78.40;;;;;;4943233;28;20287;-80
2022/03/09 03:02:02;;;;;;;17.93;9.33;;;4.40;78.50;;;;;;4960465;28;20224;-79
2022/03/09 03:04:28;;;;;;;15.23;8.40;;;4.40;78.60;;;;;;4958582;28;20192;-78
2022/03/09 03:06:54;;;;;;;13.53;8.30;;;4.40;78.60;;;;;;4960014;28;20651;-79
2022/03/09 03:09:19;;;;;;;14.23;8.17;;;4.40;78.70;;;;;;4960767;28;20239;-80
2022/03/09 03:11:45;;;;;;;19.10;9.43;;;4.40;78.70;;;;;;4957348;28;20208;-79
2022/03/09 03:14:11;;;;;;;16.23;9.00;;;4.40;78.80;;;;;;4945378;28;20213;-80
2022/03/09 03:16:36;;;;;;;14.80;8.63;;;4.40;78.80;;;;;;4976369;28;20200;-80
2022/03/09 03:19:03;;;;;;;15.90;8.30;;;4.40;78.80;;;;;;4927799;28;20280;-79
2022/03/09 03:21:28;;;;;;;14.70;8.13;;;4.40;78.90;;;;;;4943284;28;20275;-80
2022/03/09 03:23:54;;;;;;;15.07;8.40;;;4.40;79.00;;;;;;4927262;28;20239;-79
2022/03/09 03:26:20;;;;;;;14.53;8.50;;;4.30;79.00;;;;;;4957246;28;20192;-78
2022/03/09 03:28:46;;;;;;;16.53;8.00;;;4.40;79.00;;;;;;4929572;28;20228;-79
2022/03/09 03:31:12;;;;;;;16.63;8.13;;;4.30;79.00;;;;;;4975133;28;20197;-79
2022/03/09 03:33:37;;;;;;;17.37;8.67;;;4.30;79.00;;;;;;4960520;28;20204;-78
2022/03/09 03:36:03;;;;;;;16.73;8.40;;;4.30;79.10;;;;;;4957822;28;20197;-80
2022/03/09 03:38:30;;;;;;;15.03;8.93;;;4.30;79.10;;;;;;4978576;28;20701;-80
2022/03/09 03:40:56;;;;;;;15.27;7.63;;;4.30;79.20;;;;;;4975260;28;20220;-80
2022/03/09 03:43:22;;;;;;;13.67;8.67;;;4.30;79.30;;;;;;4926213;28;20583;-78
2022/03/09 03:45:47;;;;;;;13.77;8.07;;;4.30;79.40;;;;;;4943405;28;20686;-80
2022/03/09 03:48:13;;;;;;;13.93;7.97;;;4.30;79.40;;;;;;4927416;28;20194;-78
2022/03/09 03:50:39;;;;;;;15.57;7.90;;;4.30;79.40;;;;;;4959941;28;20196;-81
2022/03/09 03:53:04;;;;;;;16.90;8.27;;;4.30;79.40;;;;;;4943908;28;20263;-79
2022/03/09 03:55:30;;;;;;;16.17;7.77;;;4.30;79.50;;;;;;4959466;28;20275;-79
2022/03/09 03:57:56;;;;;;;16.37;7.83;;;4.30;79.50;;;;;;4943842;28;20690;-79
2022/03/09 04:00:23;;;;;;;23.33;8.93;;;4.30;79.50;;;;;;4926909;28;20237;-79
2022/03/09 04:02:50;;;;;;;17.63;8.47;;;4.30;79.50;;;;;;4977917;28;20216;-79
2022/03/09 04:05:16;;;;;;;15.73;8.20;;;4.30;79.60;;;;;;4958146;28;20216;-80
2022/03/09 04:07:42;;;;;;;17.67;8.67;;;4.30;79.60;;;;;;4943404;28;20207;-80
2022/03/09 04:10:08;;;;;;;19.27;8.57;;;4.30;79.60;;;;;;4958179;28;20197;-80
2022/03/09 04:12:34;;;;;;;16.53;7.57;;;4.30;79.70;;;;;;4929243;28;20271;-78
2022/03/09 04:14:59;;;;;;;18.00;7.93;;;4.20;79.60;;;;;;4960889;28;20667;-78
2022/03/09 04:17:25;;;;;;;17.90;8.50;;;4.30;79.70;;;;;;4942915;28;20193;-79
2022/03/09 04:19:51;;;;;;;15.30;8.47;;;4.20;79.70;;;;;;4942310;28;20192;-79
2022/03/09 04:22:16;;;;;;;16.27;8.23;;;4.20;79.70;;;;;;4942886;28;20307;-79
2022/03/09 04:24:42;;;;;;;16.90;8.83;;;4.20;79.80;;;;;;4944134;28;20193;-79
2022/03/09 04:27:08;;;;;;;11.97;7.47;;;4.20;79.80;;;;;;4957584;28;20181;-80
2022/03/09 04:29:34;;;;;;;16.50;8.40;;;4.20;79.80;;;;;;4927225;28;20250;-79
2022/03/09 04:31:59;;;;;;;14.57;7.50;;;4.20;79.80;;;;;;4942984;28;20192;-79
2022/03/09 04:34:25;;;;;;;14.60;7.87;;;4.20;79.90;;;;;;4928997;28;20657;-79
2022/03/09 04:36:50;;;;;;;17.97;8.43;;;4.20;79.90;;;;;;4956132;28;20198;-80
2022/03/09 04:39:16;;;;;;;14.60;8.33;;;4.20;79.90;;;;;;4944801;28;20188;-80
2022/03/09 04:41:42;;;;;;;16.80;7.90;;;4.20;80.00;;;;;;4942825;28;20224;-80
2022/03/09 04:44:08;;;;;;;16.03;8.50;;;4.10;80.00;;;;;;4960648;28;20204;-80
2022/03/09 04:46:33;;;;;;;15.60;8.30;;;4.10;80.10;;;;;;4957118;28;20184;-80
2022/03/09 04:49:00;;;;;;;16.30;8.60;;;4.10;80.10;;;;;;4928279;28;20653;-80
2022/03/09 04:51:25;;;;;;;18.60;7.77;;;4.10;80.20;;;;;;4958376;28;20197;-80
2022/03/09 04:53:51;;;;;;;15.23;8.13;;;4.10;80.30;;;;;;4928668;28;20229;-80
2022/03/09 04:56:17;;;;;;;15.93;8.17;;;4.00;80.30;;;;;;4941933;28;20200;-78
2022/03/09 04:58:43;;;;;;;14.87;8.40;;;4.00;80.40;;;;;;4957009;28;20750;-79
2022/03/09 05:01:09;;;;;;;17.43;9.20;;;4.00;80.50;;;;;;4974405;28;20201;-79
2022/03/09 05:03:37;;;;;;;14.53;7.77;;;4.00;80.50;;;;;;4944695;28;20189;-79
2022/03/09 05:06:03;;;;;;;13.20;7.70;;;4.00;80.70;;;;;;4943304;28;20614;-79
2022/03/09 05:08:28;;;;;;;14.53;8.23;;;4.00;80.70;;;;;;4974742;28;20198;-79
2022/03/09 05:10:54;;;;;;;16.20;8.20;;;3.90;80.80;;;;;;4942821;28;20259;-80
2022/03/09 05:13:22;;;;;;;21.50;8.07;;;3.90;81.40;;;;;;4925203;28;20699;-80
2022/03/09 05:15:48;;;;;;;14.47;7.70;;;4.00;81.10;;;;;;4943525;28;20200;-80
2022/03/09 05:18:15;;;;;;;16.17;8.03;;;3.90;81.20;;;;;;4928487;28;20662;-79
2022/03/09 05:20:40;;;;;;;18.33;8.90;;;3.90;81.30;;;;;;4959918;28;20215;-80
2022/03/09 05:23:06;;;;;;;15.03;7.97;;;3.80;81.30;;;;;;4929758;28;20251;-79
2022/03/09 05:25:32;;;;;;;14.87;8.10;;;3.80;81.50;;;;;;4942799;28;20212;-78
2022/03/09 05:27:59;;;;;;;17.03;8.60;;;3.80;81.60;;;;;;4942843;28;20196;-79
2022/03/09 05:30:27;;;;;;;16.40;8.63;;;3.80;82.50;;;;;;4958682;28;20188;-78
2022/03/09 05:32:53;;;;;;;19.80;9.57;;;3.80;81.90;;;;;;4959302;28;20278;-79
2022/03/09 05:35:18;;;;;;;13.63;7.73;;;3.80;82.00;;;;;;4943095;28;20299;-80
2022/03/09 05:37:44;;;;;;;19.23;9.03;;;3.70;83.00;;;;;;4927496;28;20684;-80
2022/03/09 05:40:11;;;;;;;15.73;8.67;;;3.70;82.20;;;;;;4975029;28;20184;-79
2022/03/09 05:42:37;;;;;;;16.03;8.03;;;3.70;82.20;;;;;;4959470;28;20295;-79
2022/03/09 05:45:05;;;;;;;19.20;8.87;;;3.70;82.40;;;;;;4959926;28;20684;-81
2022/03/09 05:47:31;;;;;;;15.93;8.00;;;3.60;83.20;;;;;;4961115;28;20220;-80
2022/03/09 05:49:57;;;;;;;14.97;8.83;;;3.60;82.50;;;;;;4976868;28;20477;-78
2022/03/09 05:52:23;;;;;;;16.83;8.40;;;3.60;82.60;;;;;;4959204;28;20230;-80
2022/03/09 05:54:48;;;;;;;13.80;8.40;;;3.60;82.70;;;;;;4960115;28;20207;-80
2022/03/09 05:57:18;;;;;;;18.10;8.50;;;3.60;82.90;;;;;;4958094;28;20196;-78
2022/03/09 05:59:44;;;;;;;16.60;8.13;;;3.50;83.00;;;;;;4975128;28;20594;-80
2022/03/09 06:02:09;;;;;;;17.93;7.93;;;3.50;83.10;;;;;;4977811;28;20207;-79
2022/03/09 06:04:35;;;;;;;20.03;9.07;;;3.60;83.30;;;;;;4942857;28;20185;-79
2022/03/09 06:07:02;;;;;;;16.50;8.43;;;3.50;83.30;;;;;;4942303;28;20277;-79
2022/03/09 06:09:29;;;;;;;19.20;8.50;;;3.50;83.40;;;;;;4958887;28;20180;-79
2022/03/09 06:11:55;;;;;;;17.10;8.17;;;3.50;83.60;;;;;;4974099;28;20196;-78
2022/03/09 06:14:20;;;;;;;18.17;8.47;;;3.50;83.80;;;;;;4957519;28;20228;-80
2022/03/09 06:16:49;;;;;;;16.07;8.13;;;3.50;83.90;;;;;;4926934;28;20200;-81
2022/03/09 06:19:16;;;;;;;13.37;7.70;;;3.50;84.00;;;;;;4928080;28;20188;-79
2022/03/09 06:21:42;;;;;;;17.43;9.00;;;3.50;84.20;;;;;;4973914;28;20249;-80
2022/03/09 06:24:08;;;;;;;19.43;8.53;;;3.50;84.30;;;;;;4972893;28;20593;-80
2022/03/09 06:26:33;;;;;;;15.63;8.27;;;3.60;84.50;;;;;;4956896;28;20189;-79
2022/03/09 06:28:59;;;;;;;19.53;7.90;;;3.50;84.50;;;;;;4941323;28;20296;-80
2022/03/09 06:31:25;;;;;;;15.43;8.13;;;3.50;84.50;;;;;;4941315;28;20200;-81
2022/03/09 06:33:50;;;;;;;26.27;9.33;;;3.50;84.60;;;;;;4956691;28;20189;-80
2022/03/09 06:36:16;;;;;;;17.70;8.50;;;3.50;84.70;;;;;;4940666;28;20189;-81
2022/03/09 06:38:42;;;;;;;28.70;9.53;;;3.50;84.80;;;;;;4959670;28;20639;-81
2022/03/09 06:41:08;;;;;;;19.93;8.17;;;3.60;84.90;;;;;;4955440;28;20213;-80
2022/03/09 06:43:34;;;;;;;18.60;9.30;;;3.60;85.00;;;;;;4942891;28;20655;-81
2022/03/09 06:45:59;;;;;;;21.23;8.60;;;3.60;85.00;;;;;;4961285;28;20192;-79
2022/03/09 06:48:25;;;;;;;21.70;8.70;;;3.70;85.10;;;;;;4942789;28;20188;-79
2022/03/09 06:50:51;;;;;;;17.17;8.23;;;3.80;85.10;;;;;;4960960;28;20299;-79
2022/03/09 06:53:17;;;;;;;19.27;9.17;;;3.70;85.10;;;;;;4940727;28;20223;-80
2022/03/09 06:55:42;;;;;;;18.00;8.50;;;3.80;85.10;;;;;;4959904;28;20193;-81
2022/03/09 06:58:08;;;;;;;19.97;9.37;;;3.90;85.00;;;;;;4930839;28;20733;-80
2022/03/09 07:00:36;;;;;;;18.80;9.67;;;3.90;85.20;;;;;;4929558;28;20232;-81
2022/03/09 07:03:05;;;;;;;26.17;8.73;;;3.90;84.80;;;;;;4946794;28;20189;-80
2022/03/09 07:05:31;;;;;;;21.30;10.37;;;4.00;85.00;;;;;;4945389;28;20185;-79
2022/03/09 07:07:57;;;;;;;18.77;8.33;;;4.00;85.00;;;;;;4975798;28;20546;-80
2022/03/09 07:10:22;;;;;;;18.40;9.47;;;4.00;85.10;;;;;;4942734;28;20204;-81
2022/03/09 07:12:48;;;;;;;27.07;9.90;;;4.00;85.20;;;;;;4929842;28;20209;-80
2022/03/09 07:15:15;;;;;;;17.43;9.33;;;4.00;85.20;;;;;;4958434;28;20616;-80
2022/03/09 07:17:41;;;;;;;17.67;8.80;;;4.00;85.20;;;;;;4963320;28;20181;-82
2022/03/09 07:20:07;;;;;;;19.63;9.10;;;4.10;85.30;;;;;;4949772;28;20689;-81
2022/03/09 07:22:33;;;;;;;23.83;9.60;;;4.10;85.30;;;;;;4948782;28;20296;-81
2022/03/09 07:24:58;;;;;;;19.50;8.80;;;4.10;85.40;;;;;;4934242;28;20292;-81
2022/03/09 07:27:24;;;;;;;17.63;9.63;;;4.10;85.40;;;;;;4942294;28;20736;-80
2022/03/09 07:29:50;;;;;;;19.10;9.27;;;4.20;85.50;;;;;;4961228;28;20185;-81
2022/03/09 07:32:16;;;;;;;24.30;10.23;;;4.20;85.50;;;;;;4962676;28;20228;-79
2022/03/09 07:34:42;;;;;;;26.97;8.80;;;4.20;85.50;;;;;;4960309;28;20300;-79
2022/03/09 07:37:08;;;;;;;22.40;8.90;;;4.30;85.50;;;;;;4950084;28;20224;-81
2022/03/09 07:39:35;;;;;;;29.83;9.27;;;4.30;85.40;;;;;;4984145;28;20196;-80
2022/03/09 07:42:01;;;;;;;28.30;9.07;;;4.40;85.50;;;;;;4967196;28;20295;-79
2022/03/09 07:44:27;;;;;;;26.77;9.30;;;4.40;85.40;;;;;;4968031;28;20200;-81
2022/03/09 07:46:54;;;;;;;24.10;11.00;;;4.40;86.10;;;;;;4982422;28;20266;-82
2022/03/09 07:49:20;;;;;;;20.97;9.43;;;4.50;85.40;;;;;;4934918;28;20195;-81
2022/03/09 07:51:46;;;;;;;19.10;9.87;;;4.50;85.40;;;;;;4965573;28;20663;-81
2022/03/09 07:54:12;;;;;;;19.70;8.43;;;4.60;85.40;;;;;;4965010;28;20219;-81
2022/03/09 07:56:38;;;;;;;18.40;9.33;;;4.60;85.40;;;;;;4946583;28;20196;-80
2022/03/09 07:59:05;;;;;;;16.93;8.53;;;4.70;85.50;;;;;;4945836;28;20232;-80
2022/03/09 08:01:31;;;;;;;18.70;9.03;;;4.70;85.30;;;;;;4961985;28;20267;-81
2022/03/09 08:03:57;;;;;;;22.47;9.57;;;4.80;85.30;;;;;;4962730;28;20220;-82
2022/03/09 08:06:23;;;;;;;21.07;9.87;;;4.80;85.30;;;;;;4960803;28;20801;-80
2022/03/09 08:08:49;;;;;;;19.57;9.20;;;4.90;85.30;;;;;;4961542;28;20686;-81
2022/03/09 08:11:15;;;;;;;20.93;9.47;;;4.90;85.30;;;;;;4930697;28;20188;-81
2022/03/09 08:13:41;;;;;;;20.33;9.97;;;4.90;85.20;;;;;;4960435;28;21054;-80
2022/03/09 08:16:07;;;;;;;23.57;10.40;;;5.00;85.10;;;;;;4961200;28;20212;-82
2022/03/09 08:18:33;;;;;;;21.10;10.07;;;5.10;85.10;;;;;;4977163;28;20530;-80
2022/03/09 08:20:59;;;;;;;19.13;9.60;;;5.20;85.00;;;;;;4959899;28;20221;-80
2022/03/09 08:23:25;;;;;;;22.83;10.20;;;5.30;85.00;;;;;;4947825;28;20225;-80
2022/03/09 08:25:51;;;;;;;25.33;10.53;;;5.30;84.80;;;;;;4960663;28;20263;-80
2022/03/09 08:28:17;;;;;;;17.60;9.33;;;5.30;84.80;;;;;;4980132;28;20200;-81
2022/03/09 08:30:44;;;;;;;17.87;9.70;;;5.40;84.70;;;;;;4945017;28;20648;-79
2022/03/09 08:33:10;;;;;;;21.40;9.90;;;5.50;84.70;;;;;;4962173;28;20674;-82
2022/03/09 08:35:36;;;;;;;25.47;10.30;;;5.50;84.70;;;;;;4959595;28;20185;-81
2022/03/09 08:38:02;;;;;;;19.60;9.97;;;5.60;84.60;;;;;;4959162;28;20191;-81
2022/03/09 08:40:28;;;;;;;26.37;10.57;;;5.60;84.50;;;;;;4962409;28;20176;-81
2022/03/09 08:42:53;;;;;;;20.10;9.93;;;5.70;84.40;;;;;;4977824;28;21023;-81
2022/03/09 08:45:19;;;;;;;28.53;10.40;;;5.80;84.40;;;;;;4959918;28;20213;-80
2022/03/09 08:47:45;;;;;;;24.40;10.07;;;6.60;86.10;;;;;;4958768;28;20190;-81
2022/03/09 08:50:11;;;;;;;23.97;10.23;;;8.50;85.50;;;;;;4942482;28;20209;-81
2022/03/09 08:52:37;;;;;;;18.07;9.50;;;10.30;82.30;;;;;;4942654;28;20201;-81
2022/03/09 08:55:04;;;;;;;21.03;10.80;;;11.80;78.90;;;;;;4946160;28;20196;-80
2022/03/09 08:57:29;;;;;;;21.93;11.03;;;13.00;75.60;;;;;;4960704;28;20192;-80
2022/03/09 08:59:57;;;;;;;21.83;11.20;;;13.80;72.90;;;;;;4945280;28;20240;-80
2022/03/09 09:02:23;;;;;;;25.77;11.17;;;14.30;70.60;;;;;;4947722;28;20268;-81
2022/03/09 09:04:49;;;;;;;23.40;11.20;;;14.80;69.20;;;;;;4945665;28;20184;-80
2022/03/09 09:07:15;;;;;;;19.73;10.23;;;15.40;68.10;;;;;;4944253;28;20199;-81
2022/03/09 09:09:40;;;;;;;23.63;11.67;;;16.00;66.80;;;;;;4938514;28;20356;-80
2022/03/09 09:12:06;;;;;;;21.47;12.17;;;16.60;64.90;;;;;;4928972;28;20228;-81
2022/03/09 09:14:32;;;;;;;24.53;11.33;;;16.90;63.40;;;;;;4959733;28;20203;-81
2022/03/09 09:16:57;;;;;;;20.47;11.03;;;17.10;62.30;;;;;;4959135;28;20214;-79
2022/03/09 09:19:23;;;;;;;20.83;11.30;;;17.50;61.30;;;;;;4960565;28;20206;-81
2022/03/09 09:21:49;;;;;;;22.47;11.63;;;17.80;60.40;;;;;;4927086;28;20761;-80
2022/03/09 09:24:15;;;;;;;20.70;11.43;;;18.10;59.70;;;;;;4958157;28;20679;-80
2022/03/09 09:26:41;;;;;;;20.30;12.37;;;18.50;58.80;;;;;;4976395;28;20643;-81
2022/03/09 09:29:07;;;;;;;23.40;12.87;;;18.90;58.00;;;;;;4941176;28;20225;-81
2022/03/09 09:31:33;;;;;;;21.93;12.40;;;19.10;57.00;;;;;;4925823;28;20650;-80
2022/03/09 09:33:59;;;;;;;20.73;12.47;;;19.40;56.40;;;;;;4958196;28;20266;-81
2022/03/09 09:36:25;;;;;;;27.70;14.43;;;19.50;55.50;;;;;;4946378;28;20201;-80
2022/03/09 09:38:51;;;;;;;20.97;12.43;;;19.60;55.10;;;;;;4928520;28;20339;-81
2022/03/09 09:41:19;;;;;;;22.73;12.27;;;19.90;54.60;;;;;;4958523;28;20515;-81
2022/03/09 09:43:45;;;;;;;24.83;12.97;;;20.30;54.10;;;;;;4943381;28;20287;-80
2022/03/09 09:46:13;;;;;;;28.87;13.00;;;20.80;53.30;;;;;;4962067;28;20210;-81
2022/03/09 09:48:39;;;;;;;25.00;13.37;;;21.00;52.30;;;;;;4959979;28;20204;-79
2022/03/09 09:51:07;;;;;;;23.90;13.33;;;20.90;51.60;;;;;;4960511;28;20226;-80
2022/03/09 09:53:35;;;;;;;23.97;13.27;;;21.00;52.00;;;;;;4956305;28;20303;-81
2022/03/09 09:56:02;;;;;;;23.73;13.63;;;21.30;50.90;;;;;;4942393;28;20191;-80
2022/03/09 09:58:28;;;;;;;22.20;13.47;;;21.40;50.40;;;;;;4975516;28;20282;-79
2022/03/09 10:00:56;;;;;;;23.70;13.67;;;21.60;49.90;;;;;;4975664;28;20239;-80
2022/03/09 10:03:21;;;;;;;22.40;13.03;;;21.90;50.00;;;;;;4959853;28;20228;-81
2022/03/09 10:05:47;;;;;;;27.53;13.97;;;22.20;49.00;;;;;;4961140;28;20201;-81
2022/03/09 10:08:16;;;;;;;23.60;13.57;;;22.70;48.50;;;;;;4957529;28;20184;-80
2022/03/09 10:10:57;;;;;;;26.10;13.70;;;23.10;47.80;;;;;;4973847;28;20249;-79
2022/03/09 10:13:35;;;;;;;24.53;14.40;;;23.60;47.00;;;;;;4976233;28;20198;-81
2022/03/09 10:16:16;;;;;;;26.10;15.43;;;23.90;46.40;;;;;;4959021;28;20640;-81
2022/03/09 10:18:54;;;;;;;24.87;15.43;;;23.90;45.50;;;;;;4957445;28;20198;-80
2022/03/09 10:21:28;;;;;;;24.27;15.40;;;24.10;45.20;;;;;;4957229;28;20647;-80
2022/03/09 10:23:57;;;;;;;23.43;14.90;;;24.30;45.60;;;;;;4956115;28;20228;-80
2022/03/09 10:26:28;;;;;;;24.20;15.80;;;24.60;44.30;;;;;;4976826;28;20174;-80
2022/03/09 10:29:08;;;;;;;25.13;15.27;;;24.80;44.10;;;;;;4961180;28;20200;-80
2022/03/09 10:31:35;;;;;;;27.40;15.43;;;24.80;43.20;;;;;;4961933;28;20190;-82
2022/03/09 10:34:15;;;;;;;26.00;15.70;;;25.00;44.10;;;;;;4944517;28;20190;-82
2022/03/09 10:36:57;;;;;;;24.77;15.80;;;25.40;42.80;;;;;;4959723;28;20201;-81
2022/03/09 10:39:25;;;;;;;27.67;15.57;;;25.60;42.10;;;;;;4963122;28;20191;-80
2022/03/09 10:41:51;;;;;;;26.70;14.67;;;25.90;42.30;;;;;;4962591;28;20201;-81
2022/03/09 10:44:17;;;;;;;24.27;14.87;;;26.60;42.10;;;;;;4959204;28;20686;-80
2022/03/09 10:46:44;;;;;;;25.10;15.53;;;27.00;41.20;;;;;;4947058;28;20638;-81
2022/03/09 10:49:12;;;;;;;24.03;14.73;;;27.10;40.70;;;;;;4966798;28;20193;-81
2022/03/09 10:51:42;;;;;;;30.57;15.37;;;27.40;40.20;;;;;;4962285;28;20634;-81
2022/03/09 10:54:10;;;;;;;22.83;15.30;;;27.60;39.70;;;;;;4982203;28;20173;-81
2022/03/09 10:56:37;;;;;;;28.25;18.17;;;27.90;39.40;;;;;;4979879;28;20193;-82
2022/03/09 10:59:25;;;;;;;26.10;15.60;;;28.00;39.00;;;;;;4983713;28;20311;-80
2022/03/09 11:02:08;;;;;;;22.58;15.13;;;28.30;38.50;;;;;;4963760;28;20219;-79
2022/03/09 11:04:36;;;;;;;29.08;16.20;;;28.70;38.10;;;;;;4976978;28;20195;-80
2022/03/09 11:07:03;;;;;;;26.17;16.23;;;29.00;38.00;;;;;;4960455;28;20272;-80
2022/03/09 11:09:30;;;;;;;27.45;16.00;;;29.10;37.30;;;;;;4960103;28;20208;-80
2022/03/09 11:11:56;;;;;;;27.42;16.08;;;29.10;37.00;;;;;;4946528;28;20196;-81
2022/03/09 11:14:26;;;;;;;25.90;15.18;;;29.10;36.80;;;;;;4977781;28;20243;-79
2022/03/09 11:16:53;;;;;;;23.88;15.40;;;29.00;36.50;;;;;;4943942;28;20279;-80
2022/03/09 11:19:20;;;;;;;23.73;15.45;;;29.40;36.40;;;;;;4962016;28;20232;-81
2022/03/09 11:21:47;;;;;;;25.23;16.20;;;29.80;36.00;;;;;;4976625;28;20326;-81
2022/03/09 11:24:15;;;;;;;25.58;16.02;;;30.10;35.50;;;;;;4957941;28;20184;-80
2022/03/09 11:26:51;;;;;;;25.25;17.30;;;30.30;35.00;;;;;;4958510;28;20184;-80
2022/03/09 11:29:27;;;;;;;24.95;15.27;;;30.00;34.50;;;;;;4975304;28;20935;-80
2022/03/09 11:31:53;;;;;;;34.35;18.90;;;29.70;34.40;;;;;;4963070;28;20244;-82
2022/03/09 11:34:32;;;;;;;28.50;17.60;;;29.80;34.50;;;;;;4945004;28;20669;-80
2022/03/09 11:37:01;;;;;;;26.75;17.33;;;29.70;34.00;;;;;;4979577;28;20176;-81
2022/03/09 11:39:26;;;;;;;30.10;19.30;;;29.50;34.20;;;;;;4979137;28;20524;-81
2022/03/09 11:42:20;;;;;;;30.08;19.15;;;29.50;34.00;;;;;;4930142;28;20302;-81
2022/03/09 11:44:47;;;;;;;31.42;18.77;;;29.60;33.60;;;;;;4959353;28;20231;-80
2022/03/09 11:47:13;;;;;;;26.80;18.02;;;29.60;33.70;;;;;;4964387;28;20243;-80
2022/03/09 11:49:41;;;;;;;31.85;18.58;;;29.60;33.50;;;;;;4961466;28;20188;-80
2022/03/09 11:52:15;;;;;;;28.92;18.88;;;29.50;33.10;;;;;;4977522;28;20624;-79
2022/03/09 11:54:46;;;;;;;25.67;17.23;;;29.40;33.20;;;;;;4978252;28;20180;-81
2022/03/09 11:57:13;;;;;;;28.15;17.98;;;29.20;33.20;;;;;;4980875;28;20184;-81
2022/03/09 11:59:39;;;;;;;25.85;17.77;;;29.10;33.10;;;;;;4945097;28;20367;-80
2022/03/09 12:02:10;;;;;;;30.23;18.83;;;28.90;32.90;;;;;;4929845;28;20646;-80
2022/03/09 12:04:42;;;;;;;30.65;19.17;;;27.70;32.60;;;;;;4961297;28;20207;-81
2022/03/09 12:07:09;;;;;;;31.35;18.90;;;25.70;33.30;;;;;;4961891;28;20619;-80
2022/03/09 12:09:59;;;;;;;37.00;19.70;;;23.80;34.70;;;;;;4961836;28;20235;-81
2022/03/09 12:12:27;;;;;;;32.03;17.67;;;22.10;36.30;;;;;;4978148;28;20243;-81
2022/03/09 12:15:14;;;;;;;36.70;18.23;;;21.50;37.50;;;;;;4977012;28;20218;-81
2022/03/09 12:17:44;;;;;;;29.60;18.50;;;21.90;38.10;;;;;;4961938;28;20644;-81
2022/03/09 12:20:24;;;;;;;30.93;17.77;;;22.60;37.90;;;;;;4947017;28;20282;-81
2022/03/09 12:22:56;;;;;;;34.60;19.23;;;23.60;37.50;;;;;;4980506;28;20182;-81
2022/03/09 12:25:41;;;;;;;35.42;17.83;;;24.50;37.00;;;;;;4979120;28;20177;-82
2022/03/09 12:30:58;;;;;;;32.40;18.35;;;25.90;35.80;;;;;;4978203;28;20625;-81
2022/03/09 12:33:29;;;;;;;28.98;17.00;;;25.30;35.50;;;;;;4959310;28;20172;-80
2022/03/09 12:36:16;;;;;;;30.43;18.33;;;24.20;35.90;;;;;;4976816;28;20188;-81
2022/03/09 12:38:44;;;;;;;35.60;19.43;;;22.80;36.50;;;;;;4956500;28;20183;-82
2022/03/09 12:41:36;;;;;;;38.07;20.00;;;21.50;37.50;;;;;;4975816;28;20193;-82
2022/03/09 12:44:07;;;;;;;31.60;17.63;;;20.20;38.70;;;;;;4963532;28;20207;-81
2022/03/09 12:46:35;;;;;;;39.53;18.70;;;19.30;39.60;;;;;;4960260;28;20187;-82